Time;durP1;ratioP1;P1;durP2;ratioP2;P2;SDS_P1;SDS_P2;PMS_P1;PMS_P2;Temp;Humidity;BMP_temperature;BMP_pressure;BME280_temperature;BME280_humidity;BME280_pressure;Samples;Min_cycle;Max_cycle;Signal;HPM_P1;HPM_P2
2022/08/14 00:01:36;;;;;;;4.93;3.70;;;;;;;;;;5283899;28;20255;-68
2022/08/14 00:04:09;;;;;;;10.13;4.22;;;;;;;;;;5284104;28;20019;-68
2022/08/14 00:06:40;;;;;;;6.82;3.88;;;;;;;;;;5283700;28;20013;-68
2022/08/14 00:09:11;;;;;;;9.27;3.77;;;;;;;;;;5284159;28;20032;-68
2022/08/14 00:11:42;;;;;;;10.57;4.43;;;;;;;;;;5282819;28;20277;-69
2022/08/14 00:14:14;;;;;;;6.88;4.13;;;;;;;;;;5283951;28;20746;-68
2022/08/14 00:16:47;;;;;;;10.45;3.95;;;;;;;;;;5283982;28;20162;-69
2022/08/14 00:19:18;;;;;;;11.25;4.70;;;;;;;;;;5282148;28;20142;-68
2022/08/14 00:21:49;;;;;;;5.57;4.30;;;;;;;;;;5284005;28;20024;-69
2022/08/14 00:24:21;;;;;;;5.95;4.10;;;;;;;;;;5284501;28;20791;-69
2022/08/14 00:26:52;;;;;;;8.35;4.05;;;;;;;;;;5282938;28;20036;-69
2022/08/14 00:29:23;;;;;;;7.78;4.32;;;;;;;;;;5284277;28;20092;-69
2022/08/14 00:31:55;;;;;;;8.35;4.30;;;;;;;;;;5283955;28;20067;-68
2022/08/14 00:34:26;;;;;;;7.23;4.80;;;;;;;;;;5283028;28;20020;-69
2022/08/14 00:36:57;;;;;;;9.07;4.70;;;;;;;;;;5283849;28;20329;-69
2022/08/14 00:39:28;;;;;;;7.72;4.25;;;;;;;;;;5282844;28;20753;-67
2022/08/14 00:41:59;;;;;;;9.20;3.97;;;;;;;;;;5283736;28;20025;-68
2022/08/14 00:44:31;;;;;;;5.23;4.47;;;;;;;;;;5283099;28;20275;-68
2022/08/14 00:47:05;;;;;;;6.53;4.63;;;;;;;;;;5282805;28;20313;-68
2022/08/14 00:49:36;;;;;;;8.52;5.18;;;;;;;;;;5282866;28;20100;-68
2022/08/14 00:52:08;;;;;;;5.95;5.20;;;;;;;;;;5283352;28;20088;-67
2022/08/14 00:54:39;;;;;;;5.90;5.40;;;;;;;;;;5282250;28;20082;-67
2022/08/14 00:57:11;;;;;;;9.55;5.15;;;;;;;;;;5283124;28;20102;-69
2022/08/14 00:59:42;;;;;;;10.80;5.90;;;;;;;;;;5282577;28;20056;-68
2022/08/14 01:02:14;;;;;;;10.15;5.90;;;;;;;;;;5282565;28;20039;-68
2022/08/14 01:04:45;;;;;;;9.15;5.40;;;;;;;;;;5282983;28;20126;-68
2022/08/14 01:07:20;;;;;;;8.05;5.32;;;;;;;;;;5283013;28;20410;-68
2022/08/14 01:09:53;;;;;;;7.15;5.40;;;;;;;;;;5281776;28;20016;-68
2022/08/14 01:12:25;;;;;;;7.22;5.07;;;;;;;;;;5282742;28;20013;-68
2022/08/14 01:14:57;;;;;;;10.18;5.28;;;;;;;;;;5281759;28;20020;-67
2022/08/14 01:23:11;;;;;;;6.63;4.78;;;;;;;;;;5282042;28;20430;-68
2022/08/14 01:25:42;;;;;;;6.30;5.45;;;;;;;;;;5282015;28;20021;-68
2022/08/14 01:28:13;;;;;;;7.72;5.25;;;;;;;;;;5282285;28;20463;-68
2022/08/14 01:30:45;;;;;;;9.00;5.05;;;;;;;;;;5280826;28;20451;-68
2022/08/14 01:33:16;;;;;;;6.00;4.47;;;;;;;;;;5282393;28;20405;-67
2022/08/14 01:35:47;;;;;;;6.45;4.85;;;;;;;;;;5281019;28;20515;-68
2022/08/14 01:38:18;;;;;;;6.88;4.75;;;;;;;;;;5282360;28;20119;-68
2022/08/14 01:40:50;;;;;;;6.87;4.90;;;;;;;;;;5282097;28;20017;-67
2022/08/14 01:43:22;;;;;;;7.45;5.05;;;;;;;;;;5281646;28;20293;-67
2022/08/14 01:45:53;;;;;;;7.82;5.13;;;;;;;;;;5282035;28;20009;-68
2022/08/14 01:48:31;;;;;;;5.05;4.40;;;;;;;;;;5282447;28;20024;-69
2022/08/14 01:51:02;;;;;;;5.27;4.13;;;;;;;;;;5281572;28;20016;-68
2022/08/14 01:53:33;;;;;;;9.00;4.72;;;;;;;;;;5281866;28;20281;-68
2022/08/14 01:56:05;;;;;;;7.97;4.37;;;;;;;;;;5281984;28;20017;-68
2022/08/14 01:58:36;;;;;;;6.93;4.20;;;;;;;;;;5280602;28;20302;-69
2022/08/14 02:01:08;;;;;;;5.90;3.92;;;;;;;;;;5281776;28;20120;-69
2022/08/14 02:03:39;;;;;;;7.55;4.65;;;;;;;;;;5281610;28;20081;-69
2022/08/14 02:06:11;;;;;;;8.48;4.13;;;;;;;;;;5281047;28;20017;-69
2022/08/14 02:08:42;;;;;;;7.82;3.88;;;;;;;;;;5281305;28;20528;-69
2022/08/14 02:11:17;;;;;;;7.63;4.45;;;;;;;;;;5281034;28;20017;-68
2022/08/14 02:13:48;;;;;;;7.45;4.63;;;;;;;;;;5281398;28;20042;-68
2022/08/14 02:16:24;;;;;;;6.45;4.10;;;;;;;;;;5281736;28;20103;-69
2022/08/14 02:18:56;;;;;;;4.65;4.20;;;;;;;;;;5280404;28;20043;-68
2022/08/14 02:21:31;;;;;;;7.05;4.10;;;;;;;;;;5281292;28;20023;-68
2022/08/14 02:24:03;;;;;;;8.13;4.07;;;;;;;;;;5281980;28;20066;-68
2022/08/14 02:26:36;;;;;;;7.57;4.18;;;;;;;;;;5280850;28;20024;-69
2022/08/14 02:29:09;;;;;;;7.50;4.80;;;;;;;;;;5281448;28;20016;-68
2022/08/14 02:31:41;;;;;;;5.47;3.67;;;;;;;;;;5281017;28;20016;-69
2022/08/14 02:34:12;;;;;;;6.70;4.05;;;;;;;;;;5280298;28;20024;-68
2022/08/14 02:36:45;;;;;;;6.83;4.30;;;;;;;;;;5280960;28;20466;-68
2022/08/14 02:39:16;;;;;;;4.55;3.50;;;;;;;;;;5280563;28;20401;-69
2022/08/14 02:41:50;;;;;;;5.28;3.88;;;;;;;;;;5280183;28;20020;-68
2022/08/14 02:44:21;;;;;;;5.22;4.20;;;;;;;;;;5280897;28;20107;-68
2022/08/14 02:46:56;;;;;;;6.55;4.22;;;;;;;;;;5279984;28;20035;-69
2022/08/14 02:49:27;;;;;;;5.78;4.13;;;;;;;;;;5280823;28;20021;-69
2022/08/14 02:51:59;;;;;;;10.30;4.25;;;;;;;;;;5281088;28;20027;-69
2022/08/14 02:54:32;;;;;;;10.32;4.53;;;;;;;;;;5279803;28;20035;-68
2022/08/14 02:57:06;;;;;;;8.02;4.75;;;;;;;;;;5280959;28;20013;-69
2022/08/14 02:59:38;;;;;;;10.05;4.65;;;;;;;;;;5280816;28;20049;-69
2022/08/14 03:02:09;;;;;;;9.18;5.50;;;;;;;;;;5280347;28;20020;-69
2022/08/14 03:04:40;;;;;;;6.53;5.22;;;;;;;;;;5280762;28;20451;-69
2022/08/14 03:07:11;;;;;;;8.37;5.10;;;;;;;;;;5280289;28;20062;-69
2022/08/14 03:09:42;;;;;;;6.83;4.17;;;;;;;;;;5280650;28;20263;-69
2022/08/14 03:12:14;;;;;;;7.15;5.25;;;;;;;;;;5280892;28;20270;-69
2022/08/14 03:14:48;;;;;;;11.27;4.90;;;;;;;;;;5279766;28;20027;-69
2022/08/14 03:17:19;;;;;;;7.53;4.28;;;;;;;;;;5280715;28;20056;-69
2022/08/14 03:19:51;;;;;;;12.43;4.33;;;;;;;;;;5280420;28;20101;-69
2022/08/14 03:22:22;;;;;;;9.50;4.57;;;;;;;;;;5279906;28;20727;-69
2022/08/14 03:24:53;;;;;;;8.32;4.43;;;;;;;;;;5280068;28;20544;-69
2022/08/14 03:27:30;;;;;;;7.13;4.40;;;;;;;;;;5278466;28;20471;-69
2022/08/14 03:30:02;;;;;;;9.23;5.20;;;;;;;;;;5278110;28;20020;-69
2022/08/14 03:32:33;;;;;;;6.20;4.65;;;;;;;;;;5278415;28;20101;-69
2022/08/14 03:35:06;;;;;;;9.10;4.90;;;;;;;;;;5278757;28;20447;-69
2022/08/14 03:37:37;;;;;;;6.28;4.88;;;;;;;;;;5277849;28;20025;-68
2022/08/14 03:40:10;;;;;;;8.98;5.20;;;;;;;;;;5279009;28;20024;-69
2022/08/14 03:42:42;;;;;;;5.40;4.68;;;;;;;;;;5278368;28;20105;-68
2022/08/14 03:45:15;;;;;;;4.85;4.45;;;;;;;;;;5280547;28;20008;-69
2022/08/14 03:47:46;;;;;;;10.25;4.85;;;;;;;;;;5280079;28;20052;-69
2022/08/14 03:50:17;;;;;;;5.03;4.45;;;;;;;;;;5279616;28;20543;-69
2022/08/14 03:52:49;;;;;;;8.93;4.83;;;;;;;;;;5280413;28;20143;-69
2022/08/14 03:55:20;;;;;;;10.48;4.75;;;;;;;;;;5284167;28;20351;-69
2022/08/14 03:57:51;;;;;;;7.93;5.18;;;;;;;;;;5283226;28;20040;-69
2022/08/14 04:00:22;;;;;;;5.72;5.22;;;;;;;;;;5284127;28;20401;-69
2022/08/14 04:02:53;;;;;;;5.97;5.35;;;;;;;;;;5283980;28;20089;-69
2022/08/14 04:05:25;;;;;;;11.00;5.35;;;;;;;;;;5283529;28;20020;-69
2022/08/14 04:07:57;;;;;;;10.50;4.72;;;;;;;;;;5284489;28;20020;-68
2022/08/14 04:10:28;;;;;;;12.45;4.97;;;;;;;;;;5283414;28;20027;-69
2022/08/14 04:13:00;;;;;;;7.63;5.50;;;;;;;;;;5284473;28;20039;-69
2022/08/14 04:15:32;;;;;;;7.70;5.72;;;;;;;;;;5283943;28;20049;-68
2022/08/14 04:18:07;;;;;;;8.52;5.75;;;;;;;;;;5283103;28;20036;-68
2022/08/14 04:20:39;;;;;;;7.57;5.38;;;;;;;;;;5283849;28;20066;-68
2022/08/14 04:23:10;;;;;;;7.22;5.75;;;;;;;;;;5284027;28;20020;-69
2022/08/14 04:25:42;;;;;;;10.02;5.78;;;;;;;;;;5282656;28;20082;-67
2022/08/14 04:28:13;;;;;;;7.15;6.47;;;;;;;;;;5283474;28;20293;-68
2022/08/14 04:30:45;;;;;;;10.80;7.00;;;;;;;;;;5283249;28;20013;-67
2022/08/14 04:33:16;;;;;;;6.82;6.10;;;;;;;;;;5282792;28;20027;-68
2022/08/14 04:35:49;;;;;;;6.75;6.10;;;;;;;;;;5283304;28;20073;-68
2022/08/14 04:44:01;;;;;;;8.05;5.80;;;;;;;;;;5283991;28;20028;-69
2022/08/14 04:46:33;;;;;;;6.68;6.10;;;;;;;;;;5282491;28;20017;-68
2022/08/14 04:49:04;;;;;;;7.78;6.47;;;;;;;;;;5283638;28;20145;-68
2022/08/14 04:51:35;;;;;;;7.57;6.00;;;;;;;;;;5283121;28;20135;-68
2022/08/14 04:54:07;;;;;;;9.65;6.20;;;;;;;;;;5282531;28;20470;-68
2022/08/14 04:56:38;;;;;;;6.20;5.60;;;;;;;;;;5282800;28;20016;-68
2022/08/14 04:59:09;;;;;;;8.25;5.88;;;;;;;;;;5282798;28;20656;-68
2022/08/14 05:01:42;;;;;;;6.27;5.67;;;;;;;;;;5282631;28;20734;-68
2022/08/14 05:04:14;;;;;;;6.68;5.97;;;;;;;;;;5282709;28;20278;-68
2022/08/14 05:06:45;;;;;;;7.45;5.68;;;;;;;;;;5275054;28;20487;-67
2022/08/14 05:09:16;;;;;;;8.30;5.60;;;;;;;;;;5270617;28;20328;-68
2022/08/14 05:11:49;;;;;;;10.75;6.03;;;;;;;;;;5271430;28;20021;-68
2022/08/14 05:14:21;;;;;;;8.95;5.68;;;;;;;;;;5271190;28;20055;-68
2022/08/14 05:16:52;;;;;;;6.88;5.38;;;;;;;;;;5271252;28;20024;-68
2022/08/14 05:19:26;;;;;;;7.15;5.60;;;;;;;;;;5270326;28;20025;-68
2022/08/14 05:21:58;;;;;;;6.43;5.45;;;;;;;;;;5269759;28;20367;-67
2022/08/14 05:24:30;;;;;;;8.80;6.22;;;;;;;;;;5270763;28;20016;-68
2022/08/14 05:27:02;;;;;;;11.85;6.03;;;;;;;;;;5271322;28;20447;-68
2022/08/14 05:29:34;;;;;;;9.15;5.70;;;;;;;;;;5270014;28;20021;-69
2022/08/14 05:32:06;;;;;;;10.40;6.03;;;;;;;;;;5269899;28;20029;-68
2022/08/14 05:34:37;;;;;;;7.53;6.78;;;;;;;;;;5262481;28;20032;-68
2022/08/14 05:37:08;;;;;;;8.55;6.05;;;;;;;;;;5260604;28;20028;-68
2022/08/14 05:39:42;;;;;;;11.47;6.33;;;;;;;;;;5261319;28;20060;-68
2022/08/14 05:42:13;;;;;;;7.72;6.57;;;;;;;;;;5267741;28;20275;-69
2022/08/14 05:44:45;;;;;;;11.63;6.43;;;;;;;;;;5270581;28;20126;-68
2022/08/14 05:47:16;;;;;;;6.63;5.90;;;;;;;;;;5280862;28;20710;-68
2022/08/14 05:49:47;;;;;;;6.88;5.80;;;;;;;;;;5280631;28;20071;-69
2022/08/14 05:52:18;;;;;;;6.00;5.05;;;;;;;;;;5281778;28;20024;-69
2022/08/14 05:54:50;;;;;;;8.80;5.47;;;;;;;;;;5281636;28;20449;-69
2022/08/14 05:57:21;;;;;;;7.60;5.25;;;;;;;;;;5281011;28;20459;-69
2022/08/14 05:59:52;;;;;;;10.20;5.17;;;;;;;;;;5281904;28;20487;-69
2022/08/14 06:02:23;;;;;;;8.55;5.32;;;;;;;;;;5281773;28;20258;-71
2022/08/14 06:04:55;;;;;;;9.68;5.82;;;;;;;;;;5268311;28;20374;-71
2022/08/14 06:07:26;;;;;;;5.03;4.50;;;;;;;;;;5270234;28;21038;-71
2022/08/14 06:09:57;;;;;;;6.80;4.97;;;;;;;;;;5271937;28;20331;-70
2022/08/14 06:12:28;;;;;;;8.02;4.90;;;;;;;;;;5265895;28;20044;-71
2022/08/14 06:14:59;;;;;;;7.20;4.70;;;;;;;;;;5260637;28;20043;-71
2022/08/14 06:17:31;;;;;;;6.35;4.80;;;;;;;;;;5260052;28;20845;-70
2022/08/14 06:20:02;;;;;;;6.43;4.88;;;;;;;;;;5280698;28;20020;-70
2022/08/14 06:22:33;;;;;;;6.82;4.55;;;;;;;;;;5280312;28;20028;-71
2022/08/14 06:25:05;;;;;;;5.82;4.63;;;;;;;;;;5275221;28;20024;-71
2022/08/14 06:27:37;;;;;;;5.28;4.78;;;;;;;;;;5270685;28;20036;-71
2022/08/14 06:30:10;;;;;;;4.35;4.05;;;;;;;;;;5263315;28;20036;-69
2022/08/14 06:32:41;;;;;;;7.57;4.75;;;;;;;;;;5271822;28;20108;-69
2022/08/14 06:35:13;;;;;;;7.47;4.27;;;;;;;;;;5264214;28;20523;-69
2022/08/14 06:37:52;;;;;;;5.18;4.50;;;;;;;;;;5259555;28;20295;-69
2022/08/14 06:40:28;;;;;;;7.35;3.97;;;;;;;;;;5259521;28;20009;-69
2022/08/14 06:43:10;;;;;;;8.27;4.60;;;;;;;;;;5260334;28;20052;-69
2022/08/14 06:45:42;;;;;;;5.88;4.35;;;;;;;;;;5258967;28;20017;-70
2022/08/14 06:48:17;;;;;;;8.75;4.65;;;;;;;;;;5259556;28;20033;-70
2022/08/14 06:50:50;;;;;;;5.75;3.92;;;;;;;;;;5259803;28;20372;-69
2022/08/14 06:53:21;;;;;;;6.35;3.70;;;;;;;;;;5259169;28;20029;-69
2022/08/14 06:55:52;;;;;;;5.38;3.90;;;;;;;;;;5259618;28;20017;-70
2022/08/14 06:58:23;;;;;;;5.88;3.70;;;;;;;;;;5259784;28;20070;-69
2022/08/14 07:06:34;;;;;;;4.28;3.08;;;;;;;;;;5258874;28;20418;-69
2022/08/14 07:09:05;;;;;;;4.63;3.38;;;;;;;;;;5259852;28;20033;-68
2022/08/14 07:11:37;;;;;;;6.15;3.90;;;;;;;;;;5259818;28;20048;-69
2022/08/14 07:14:08;;;;;;;8.52;4.22;;;;;;;;;;5259027;28;20021;-71
2022/08/14 07:16:39;;;;;;;4.80;3.78;;;;;;;;;;5259326;28;20475;-71
2022/08/14 07:19:10;;;;;;;5.50;3.10;;;;;;;;;;5259771;28;20033;-70
2022/08/14 07:21:41;;;;;;;3.53;2.80;;;;;;;;;;5258571;28;20200;-69
2022/08/14 07:24:12;;;;;;;6.32;3.92;;;;;;;;;;5259399;28;20037;-69
2022/08/14 07:26:43;;;;;;;3.77;3.07;;;;;;;;;;5259535;28;20024;-68
2022/08/14 07:29:15;;;;;;;4.95;3.03;;;;;;;;;;5261279;28;20426;-68
2022/08/14 07:31:46;;;;;;;7.95;3.38;;;;;;;;;;5264193;28;20100;-68
2022/08/14 07:34:17;;;;;;;5.50;2.75;;;;;;;;;;5263818;28;20024;-67
2022/08/14 07:36:48;;;;;;;4.57;2.67;;;;;;;;;;5263732;28;20089;-67
2022/08/14 07:39:19;;;;;;;6.45;2.75;;;;;;;;;;5263886;28;20033;-67
2022/08/14 07:41:51;;;;;;;5.97;2.67;;;;;;;;;;5262835;28;20482;-68
2022/08/14 07:44:22;;;;;;;4.25;2.40;;;;;;;;;;5263766;28;20266;-67
2022/08/14 07:46:53;;;;;;;3.47;2.97;;;;;;;;;;5263317;28;20167;-67
2022/08/14 07:49:25;;;;;;;3.90;2.58;;;;;;;;;;5262892;28;20044;-69
2022/08/14 07:51:58;;;;;;;7.13;2.95;;;;;;;;;;5263664;28;20048;-67
2022/08/14 07:54:30;;;;;;;6.35;2.50;;;;;;;;;;5263103;28;20349;-68
2022/08/14 07:57:01;;;;;;;6.10;2.63;;;;;;;;;;5262315;28;20028;-69
2022/08/14 07:59:32;;;;;;;4.53;2.90;;;;;;;;;;5263042;28;20083;-67
2022/08/14 08:02:04;;;;;;;6.60;2.60;;;;;;;;;;5263272;28;20017;-68
2022/08/14 08:04:41;;;;;;;11.88;3.00;;;;;;;;;;5261941;28;20075;-68
2022/08/14 08:07:12;;;;;;;3.83;2.33;;;;;;;;;;5262566;28;20090;-67
2022/08/14 08:09:47;;;;;;;6.72;2.40;;;;;;;;;;5262375;28;20418;-68
2022/08/14 08:12:19;;;;;;;3.55;2.10;;;;;;;;;;5263104;28;20414;-68
2022/08/14 08:14:51;;;;;;;5.43;2.70;;;;;;;;;;5262639;28;20063;-67
2022/08/14 08:17:22;;;;;;;6.28;2.80;;;;;;;;;;5261992;28;20116;-67
2022/08/14 08:19:55;;;;;;;3.35;2.53;;;;;;;;;;5261003;28;20631;-67
2022/08/14 08:22:26;;;;;;;3.58;2.25;;;;;;;;;;5261770;28;20005;-68
2022/08/14 08:24:59;;;;;;;5.10;2.38;;;;;;;;;;5262041;28;20021;-68
2022/08/14 08:27:30;;;;;;;6.45;2.45;;;;;;;;;;5263116;28;20028;-68
2022/08/14 08:30:08;;;;;;;3.10;2.10;;;;;;;;;;5262793;28;20024;-68
2022/08/14 08:32:40;;;;;;;4.47;2.38;;;;;;;;;;5261910;28;20040;-68
2022/08/14 08:35:19;;;;;;;5.35;2.55;;;;;;;;;;5263011;28;20104;-68
2022/08/14 08:37:52;;;;;;;3.28;2.42;;;;;;;;;;5261580;28;20033;-68
2022/08/14 08:40:26;;;;;;;4.65;2.10;;;;;;;;;;5261705;28;20070;-69
2022/08/14 08:42:57;;;;;;;4.35;2.08;;;;;;;;;;5263287;28;20017;-70
2022/08/14 08:45:29;;;;;;;5.07;2.20;;;;;;;;;;5261863;28;20028;-69
2022/08/14 08:48:00;;;;;;;7.15;2.08;;;;;;;;;;5263111;28;20031;-70
2022/08/14 08:50:33;;;;;;;8.00;2.25;;;;;;;;;;5262365;28;20037;-68
2022/08/14 08:53:06;;;;;;;2.40;2.10;;;;;;;;;;5261486;28;20029;-68
2022/08/14 08:55:39;;;;;;;4.00;1.90;;;;;;;;;;5262367;28;20020;-68
2022/08/14 08:58:11;;;;;;;6.65;2.10;;;;;;;;;;5262555;28;20040;-68
2022/08/14 09:00:51;;;;;;;7.32;2.20;;;;;;;;;;5261871;28;20048;-68
2022/08/14 09:03:24;;;;;;;4.32;2.10;;;;;;;;;;5262788;28;20032;-68
2022/08/14 09:06:01;;;;;;;5.50;1.95;;;;;;;;;;5261715;28;20476;-68
2022/08/14 09:08:33;;;;;;;3.45;1.90;;;;;;;;;;5262321;28;20064;-68
2022/08/14 09:11:08;;;;;;;4.50;1.83;;;;;;;;;;5262637;28;20356;-68
2022/08/14 09:13:39;;;;;;;3.15;1.60;;;;;;;;;;5261579;28;20332;-68
2022/08/14 09:16:10;;;;;;;6.10;1.47;;;;;;;;;;5262766;28;20021;-68
2022/08/14 09:18:41;;;;;;;7.00;2.00;;;;;;;;;;5262244;28;20044;-68
2022/08/14 09:21:13;;;;;;;5.20;1.63;;;;;;;;;;5262022;28;20600;-68
2022/08/14 09:23:44;;;;;;;5.13;1.15;;;;;;;;;;5262208;28;20375;-68
2022/08/14 09:26:15;;;;;;;3.78;1.48;;;;;;;;;;5262259;28;20020;-68
2022/08/14 09:28:47;;;;;;;5.25;1.40;;;;;;;;;;5261357;28;20025;-69
2022/08/14 09:31:19;;;;;;;4.45;1.50;;;;;;;;;;5262357;28;20415;-68
2022/08/14 09:34:09;;;;;;;2.90;1.02;;;;;;;;;;5261736;28;20412;-69
2022/08/14 09:36:46;;;;;;;2.53;1.10;;;;;;;;;;5261333;28;20440;-69
2022/08/14 09:39:35;;;;;;;5.65;1.45;;;;;;;;;;5261829;28;20048;-69
2022/08/14 09:42:13;;;;;;;4.18;1.30;;;;;;;;;;5260965;28;20063;-69
2022/08/14 09:44:50;;;;;;;4.53;1.20;;;;;;;;;;5261160;28;20439;-69
2022/08/14 09:47:38;;;;;;;3.83;1.30;;;;;;;;;;5261422;28;20028;-68
2022/08/14 09:50:20;;;;;;;2.75;1.27;;;;;;;;;;5260541;28;20044;-68
2022/08/14 09:52:55;;;;;;;2.58;1.52;;;;;;;;;;5260591;28;20110;-70
2022/08/14 09:55:26;;;;;;;2.53;0.90;;;;;;;;;;5260116;28;20092;-68
2022/08/14 09:58:08;;;;;;;2.53;1.13;;;;;;;;;;5261488;28;20109;-68
2022/08/14 10:00:43;;;;;;;3.85;1.17;;;;;;;;;;5260269;28;20055;-68
2022/08/14 10:03:29;;;;;;;1.77;1.00;;;;;;;;;;5260379;28;20092;-69
2022/08/14 10:06:03;;;;;;;3.83;1.00;;;;;;;;;;5261254;28;20028;-69
2022/08/14 10:08:49;;;;;;;5.90;1.83;;;;;;;;;;5261015;28;20017;-68
2022/08/14 10:11:22;;;;;;;4.72;1.20;;;;;;;;;;5260375;28;20029;-69
2022/08/14 10:13:56;;;;;;;2.90;1.10;;;;;;;;;;5260914;28;20017;-69
2022/08/14 10:16:29;;;;;;;4.68;1.45;;;;;;;;;;5259817;28;20135;-70
2022/08/14 10:19:01;;;;;;;3.85;1.42;;;;;;;;;;5260699;28;20033;-70
2022/08/14 10:21:32;;;;;;;10.55;1.42;;;;;;;;;;5260546;28;20035;-70
2022/08/14 10:24:08;;;;;;;3.90;1.10;;;;;;;;;;5261017;28;20028;-68
2022/08/14 10:26:42;;;;;;;3.85;1.63;;;;;;;;;;5268120;28;20027;-68
2022/08/14 10:29:16;;;;;;;4.85;1.25;;;;;;;;;;5270654;28;20394;-68
2022/08/14 10:31:55;;;;;;;1.75;1.30;;;;;;;;;;5268632;28;20009;-67
2022/08/14 10:34:31;;;;;;;3.25;1.30;;;;;;;;;;5265674;28;20074;-69
2022/08/14 10:37:10;;;;;;;5.10;1.35;;;;;;;;;;5270647;28;20032;-67
2022/08/14 10:39:56;;;;;;;3.08;1.38;;;;;;;;;;5276024;28;20028;-66
2022/08/14 10:42:39;;;;;;;3.80;1.45;;;;;;;;;;5279643;28;20029;-67
2022/08/14 10:45:33;;;;;;;3.58;1.40;;;;;;;;;;5281494;28;20383;-68
2022/08/14 10:48:12;;;;;;;5.20;1.20;;;;;;;;;;5268866;28;20040;-68
2022/08/14 10:50:50;;;;;;;3.88;1.67;;;;;;;;;;5282203;28;20012;-67
2022/08/14 10:53:28;;;;;;;3.08;1.65;;;;;;;;;;5281366;28;20028;-68
2022/08/14 10:56:00;;;;;;;3.53;1.25;;;;;;;;;;5282153;28;20025;-67
2022/08/14 10:58:31;;;;;;;3.72;1.30;;;;;;;;;;5281030;28;20432;-69
2022/08/14 11:01:06;;;;;;;5.13;1.20;;;;;;;;;;5281906;28;20064;-68
2022/08/14 11:03:41;;;;;;;2.30;1.60;;;;;;;;;;5281119;28;20032;-69
2022/08/14 11:06:18;;;;;;;2.60;0.95;;;;;;;;;;5281130;28;20020;-67
2022/08/14 11:08:50;;;;;;;3.58;1.25;;;;;;;;;;5281988;28;20021;-68
2022/08/14 11:11:24;;;;;;;4.38;1.10;;;;;;;;;;5282230;28;20482;-68
2022/08/14 11:13:56;;;;;;;6.70;1.10;;;;;;;;;;5281142;28;20464;-67
2022/08/14 11:16:28;;;;;;;2.88;1.00;;;;;;;;;;5281837;28;20016;-68
2022/08/14 11:19:01;;;;;;;2.85;1.35;;;;;;;;;;5281751;28;20028;-67
2022/08/14 11:21:33;;;;;;;2.88;0.95;;;;;;;;;;5280929;28;20024;-67
2022/08/14 11:24:06;;;;;;;2.25;1.20;;;;;;;;;;5282294;28;20705;-67
2022/08/14 11:26:38;;;;;;;2.67;1.00;;;;;;;;;;5280885;28;20092;-68
2022/08/14 11:29:10;;;;;;;5.47;1.25;;;;;;;;;;5281799;28;20471;-67
2022/08/14 11:31:41;;;;;;;2.85;0.95;;;;;;;;;;5281502;28;20013;-68
2022/08/14 11:34:13;;;;;;;3.35;1.17;;;;;;;;;;5281067;28;20091;-68
2022/08/14 11:36:45;;;;;;;2.08;1.30;;;;;;;;;;5281387;28;20527;-68
2022/08/14 11:39:19;;;;;;;3.38;1.70;;;;;;;;;;5281691;28;20028;-67
2022/08/14 11:41:50;;;;;;;3.22;1.35;;;;;;;;;;5280306;28;20013;-68
2022/08/14 11:44:22;;;;;;;4.77;1.10;;;;;;;;;;5275259;28;20032;-68
2022/08/14 11:46:53;;;;;;;3.10;1.20;;;;;;;;;;5274740;28;20448;-68
2022/08/14 11:49:26;;;;;;;2.78;1.30;;;;;;;;;;5280141;28;20251;-68
2022/08/14 11:51:57;;;;;;;3.45;1.15;;;;;;;;;;5274067;28;20112;-68
2022/08/14 11:54:28;;;;;;;4.18;1.40;;;;;;;;;;5260117;28;20100;-68
2022/08/14 11:57:00;;;;;;;2.88;1.45;;;;;;;;;;5267347;28;20455;-68
2022/08/14 11:59:34;;;;;;;4.00;1.50;;;;;;;;;;5269125;28;20071;-68
2022/08/14 12:02:12;;;;;;;5.03;1.17;;;;;;;;;;5270382;28;20110;-68
2022/08/14 12:04:47;;;;;;;3.40;1.23;;;;;;;;;;5266467;28;20016;-68
2022/08/14 12:07:19;;;;;;;2.58;0.93;;;;;;;;;;5264281;28;20024;-68
2022/08/14 12:09:54;;;;;;;7.07;1.50;;;;;;;;;;5260759;28;20040;-68
2022/08/14 12:12:28;;;;;;;3.45;1.15;;;;;;;;;;5270726;28;20028;-68
2022/08/14 12:14:59;;;;;;;3.33;1.02;;;;;;;;;;5272573;28;20028;-69
2022/08/14 12:17:41;;;;;;;4.25;1.20;;;;;;;;;;5277656;28;20024;-68
2022/08/14 12:20:13;;;;;;;3.72;0.85;;;;;;;;;;5279293;28;20666;-68
2022/08/14 12:22:44;;;;;;;3.42;0.80;;;;;;;;;;5266191;28;20399;-68
2022/08/14 12:25:20;;;;;;;5.30;0.80;;;;;;;;;;5275516;28;20101;-68
2022/08/14 12:27:51;;;;;;;1.60;0.70;;;;;;;;;;5265367;28;20020;-68
2022/08/14 12:30:42;;;;;;;6.40;1.20;;;;;;;;;;5264485;28;20383;-68
2022/08/14 12:33:31;;;;;;;7.70;0.93;;;;;;;;;;5268074;28;20020;-68
2022/08/14 12:36:06;;;;;;;2.67;0.90;;;;;;;;;;5275409;28;20433;-70
2022/08/14 12:38:41;;;;;;;2.85;0.93;;;;;;;;;;5276644;28;20028;-69
2022/08/14 12:41:14;;;;;;;3.85;0.95;;;;;;;;;;5265554;28;20017;-70
2022/08/14 12:43:56;;;;;;;3.15;0.90;;;;;;;;;;5270469;28;20060;-71
2022/08/14 12:46:27;;;;;;;2.08;1.00;;;;;;;;;;5269899;28;20512;-69
2022/08/14 12:48:59;;;;;;;1.97;1.07;;;;;;;;;;5261987;28;20107;-68
2022/08/14 12:51:31;;;;;;;4.22;1.05;;;;;;;;;;5260101;28;20479;-68
2022/08/14 12:54:16;;;;;;;2.78;0.90;;;;;;;;;;5262191;28;20057;-68
2022/08/14 12:56:47;;;;;;;3.22;0.93;;;;;;;;;;5261779;28;20119;-69
2022/08/14 12:59:27;;;;;;;2.13;0.90;;;;;;;;;;5260954;28;20479;-69
2022/08/14 13:02:00;;;;;;;4.40;0.90;;;;;;;;;;5262185;28;20109;-70
2022/08/14 13:04:32;;;;;;;3.72;0.80;;;;;;;;;;5260672;28;20029;-69
2022/08/14 13:07:07;;;;;;;2.95;0.80;;;;;;;;;;5259637;28;20017;-67
2022/08/14 13:09:38;;;;;;;3.55;0.80;;;;;;;;;;5260851;28;20530;-68
2022/08/14 13:12:11;;;;;;;2.17;0.80;;;;;;;;;;5260658;28;20139;-68
2022/08/14 13:14:43;;;;;;;3.47;0.95;;;;;;;;;;5260452;28;20013;-69
2022/08/14 13:17:14;;;;;;;4.90;1.10;;;;;;;;;;5261077;28;20048;-70
2022/08/14 13:19:46;;;;;;;2.38;0.80;;;;;;;;;;5260093;28;20079;-68
2022/08/14 13:22:18;;;;;;;1.67;0.70;;;;;;;;;;5261489;28;20375;-68
2022/08/14 13:24:49;;;;;;;1.30;0.60;;;;;;;;;;5260699;28;20032;-69
2022/08/14 13:27:23;;;;;;;5.93;0.70;;;;;;;;;;5259819;28;20017;-68
2022/08/14 13:29:56;;;;;;;3.08;0.70;;;;;;;;;;5261074;28;20032;-68
2022/08/14 13:32:27;;;;;;;3.03;0.90;;;;;;;;;;5260451;28;20047;-68
2022/08/14 13:34:59;;;;;;;1.67;0.82;;;;;;;;;;5260042;28;20025;-69
2022/08/14 13:37:30;;;;;;;4.65;0.70;;;;;;;;;;5259919;28;20021;-69
2022/08/14 13:40:02;;;;;;;2.40;0.80;;;;;;;;;;5260199;28;20017;-69
2022/08/14 13:42:35;;;;;;;2.92;0.90;;;;;;;;;;5259899;28;20017;-69
2022/08/14 13:45:07;;;;;;;1.65;1.00;;;;;;;;;;5260738;28;20166;-68
2022/08/14 13:47:39;;;;;;;1.98;0.80;;;;;;;;;;5260199;28;20024;-68
2022/08/14 13:50:12;;;;;;;2.58;0.73;;;;;;;;;;5260757;28;20017;-68
2022/08/14 13:52:52;;;;;;;3.95;1.00;;;;;;;;;;5259941;28;20078;-72
2022/08/14 13:55:25;;;;;;;2.58;0.90;;;;;;;;;;5274081;28;20447;-72
2022/08/14 13:57:59;;;;;;;1.50;0.80;;;;;;;;;;5281203;28;20044;-71
2022/08/14 14:00:35;;;;;;;4.90;1.02;;;;;;;;;;5280328;28;20044;-72
2022/08/14 14:03:06;;;;;;;3.08;1.02;;;;;;;;;;5280433;28;20104;-69
2022/08/14 14:05:38;;;;;;;4.57;0.90;;;;;;;;;;5280749;28;20104;-69
2022/08/14 14:08:10;;;;;;;1.47;1.00;;;;;;;;;;5280907;28;20107;-69
2022/08/14 14:10:42;;;;;;;2.10;0.85;;;;;;;;;;5280718;28;20285;-69
2022/08/14 14:13:14;;;;;;;3.28;1.10;;;;;;;;;;5281403;28;20543;-69
2022/08/14 14:15:47;;;;;;;4.60;0.95;;;;;;;;;;5279636;28;20103;-69
2022/08/14 14:18:19;;;;;;;3.80;0.93;;;;;;;;;;5280932;28;20386;-69
2022/08/14 14:20:50;;;;;;;6.22;1.00;;;;;;;;;;5280636;28;20027;-69
2022/08/14 14:23:22;;;;;;;3.40;0.90;;;;;;;;;;5262657;28;20025;-69
2022/08/14 14:25:54;;;;;;;2.50;0.85;;;;;;;;;;5259572;28;20017;-69
2022/08/14 14:28:30;;;;;;;3.45;0.90;;;;;;;;;;5259486;28;20025;-70
2022/08/14 14:31:01;;;;;;;3.08;1.00;;;;;;;;;;5259169;28;20017;-69
2022/08/14 14:33:33;;;;;;;3.10;0.90;;;;;;;;;;5259501;28;20454;-70
2022/08/14 14:36:05;;;;;;;3.53;1.00;;;;;;;;;;5260184;28;20379;-69
2022/08/14 14:38:39;;;;;;;3.85;1.02;;;;;;;;;;5262776;28;20041;-69
2022/08/14 14:41:13;;;;;;;3.03;1.00;;;;;;;;;;5268787;28;20356;-69
2022/08/14 14:43:47;;;;;;;2.33;0.80;;;;;;;;;;5266491;28;20028;-70
2022/08/14 14:46:19;;;;;;;3.45;1.00;;;;;;;;;;5262637;28;20029;-71
2022/08/14 14:48:50;;;;;;;3.53;1.10;;;;;;;;;;5262041;28;20044;-70
2022/08/14 14:51:21;;;;;;;4.43;0.73;;;;;;;;;;5279201;28;20050;-70
2022/08/14 14:53:53;;;;;;;3.55;0.90;;;;;;;;;;5280091;28;20066;-70
2022/08/14 14:56:24;;;;;;;5.45;1.10;;;;;;;;;;5280257;28;20032;-70
2022/08/14 14:58:56;;;;;;;2.80;0.90;;;;;;;;;;5279796;28;20123;-69
2022/08/14 15:01:27;;;;;;;3.55;0.90;;;;;;;;;;5279980;28;20351;-70
2022/08/14 15:03:59;;;;;;;3.47;0.82;;;;;;;;;;5280285;28;20071;-70
2022/08/14 15:06:31;;;;;;;2.47;0.82;;;;;;;;;;5279392;28;20438;-70
2022/08/14 15:09:02;;;;;;;4.07;0.93;;;;;;;;;;5280536;28;20070;-70
2022/08/14 15:11:33;;;;;;;3.58;0.80;;;;;;;;;;5278940;28;20259;-71
2022/08/14 15:14:04;;;;;;;2.27;0.93;;;;;;;;;;5280374;28;20094;-70
2022/08/14 15:16:36;;;;;;;2.97;0.90;;;;;;;;;;5279874;28;20027;-70
2022/08/14 15:19:10;;;;;;;1.63;0.90;;;;;;;;;;5279839;28;20115;-70
2022/08/14 15:21:41;;;;;;;4.05;0.98;;;;;;;;;;5279887;28;20057;-71
2022/08/14 15:24:14;;;;;;;2.63;0.97;;;;;;;;;;5280639;28;20416;-70
2022/08/14 15:26:45;;;;;;;2.95;1.20;;;;;;;;;;5279160;28;20266;-70
2022/08/14 15:29:16;;;;;;;3.92;1.65;;;;;;;;;;5280330;28;20013;-70
2022/08/14 15:31:47;;;;;;;4.55;0.88;;;;;;;;;;5279708;28;20427;-70
2022/08/14 15:34:19;;;;;;;1.33;1.02;;;;;;;;;;5279434;28;20032;-70